sensor_id;sensor_type;location;lat;lon;timestamp;P1;durP1;ratioP1;P2;durP2;ratioP2
54875;SDS011;40764;48.472;8.166;2023-05-02T00:03:40;9.43;;;6.17;;
54875;SDS011;40764;48.472;8.166;2023-05-02T00:15:42;11.13;;;6.20;;
54875;SDS011;40764;48.472;8.166;2023-05-02T00:21:42;10.17;;;6.73;;
54875;SDS011;40764;48.472;8.166;2023-05-02T00:27:46;10.20;;;6.43;;
54875;SDS011;40764;48.472;8.166;2023-05-02T00:39:51;10.00;;;6.40;;
54875;SDS011;40764;48.472;8.166;2023-05-02T00:45:51;10.07;;;5.47;;
54875;SDS011;40764;48.472;8.166;2023-05-02T00:51:52;12.63;;;5.97;;
54875;SDS011;40764;48.472;8.166;2023-05-02T00:57:53;11.07;;;5.97;;
54875;SDS011;40764;48.472;8.166;2023-05-02T01:16:08;14.63;;;6.37;;
54875;SDS011;40764;48.472;8.166;2023-05-02T01:22:11;7.53;;;5.72;;
54875;SDS011;40764;48.472;8.166;2023-05-02T01:40:37;10.40;;;6.03;;
54875;SDS011;40764;48.472;8.166;2023-05-02T01:46:39;13.37;;;5.50;;
54875;SDS011;40764;48.472;8.166;2023-05-02T01:52:41;8.85;;;5.90;;
54875;SDS011;40764;48.472;8.166;2023-05-02T01:58:43;13.18;;;6.28;;
54875;SDS011;40764;48.472;8.166;2023-05-02T02:04:45;11.05;;;6.32;;
54875;SDS011;40764;48.472;8.166;2023-05-02T02:10:49;15.95;;;5.90;;
54875;SDS011;40764;48.472;8.166;2023-05-02T02:16:56;14.82;;;5.80;;
54875;SDS011;40764;48.472;8.166;2023-05-02T02:23:02;7.70;;;5.38;;
54875;SDS011;40764;48.472;8.166;2023-05-02T02:29:05;9.43;;;5.82;;
54875;SDS011;40764;48.472;8.166;2023-05-02T02:35:06;11.23;;;6.47;;
54875;SDS011;40764;48.472;8.166;2023-05-02T02:41:31;11.57;;;6.07;;
54875;SDS011;40764;48.472;8.166;2023-05-02T02:47:49;10.98;;;6.22;;
54875;SDS011;40764;48.472;8.166;2023-05-02T03:00:38;14.23;;;6.35;;
54875;SDS011;40764;48.472;8.166;2023-05-02T03:06:39;9.37;;;6.20;;
54875;SDS011;40764;48.472;8.166;2023-05-02T03:12:40;10.70;;;5.83;;
54875;SDS011;40764;48.472;8.166;2023-05-02T03:18:40;10.43;;;6.38;;
54875;SDS011;40764;48.472;8.166;2023-05-02T03:24:41;11.67;;;7.27;;
54875;SDS011;40764;48.472;8.166;2023-05-02T03:30:41;9.07;;;5.80;;
54875;SDS011;40764;48.472;8.166;2023-05-02T03:36:42;10.05;;;6.40;;
54875;SDS011;40764;48.472;8.166;2023-05-02T03:42:42;12.50;;;6.00;;
54875;SDS011;40764;48.472;8.166;2023-05-02T03:48:42;10.63;;;6.45;;
54875;SDS011;40764;48.472;8.166;2023-05-02T03:54:45;12.40;;;7.38;;
54875;SDS011;40764;48.472;8.166;2023-05-02T04:00:45;20.85;;;6.97;;
54875;SDS011;40764;48.472;8.166;2023-05-02T04:06:46;11.63;;;6.80;;
54875;SDS011;40764;48.472;8.166;2023-05-02T04:12:46;11.60;;;6.63;;
54875;SDS011;40764;48.472;8.166;2023-05-02T04:18:46;11.65;;;6.68;;
54875;SDS011;40764;48.472;8.166;2023-05-02T04:24:47;12.52;;;7.30;;
54875;SDS011;40764;48.472;8.166;2023-05-02T04:30:48;10.35;;;6.55;;
54875;SDS011;40764;48.472;8.166;2023-05-02T04:36:49;11.18;;;7.10;;
54875;SDS011;40764;48.472;8.166;2023-05-02T04:42:49;15.50;;;7.07;;
54875;SDS011;40764;48.472;8.166;2023-05-02T04:48:49;14.77;;;8.53;;
54875;SDS011;40764;48.472;8.166;2023-05-02T04:54:50;17.50;;;7.37;;
54875;SDS011;40764;48.472;8.166;2023-05-02T05:00:51;13.27;;;6.97;;
54875;SDS011;40764;48.472;8.166;2023-05-02T05:06:51;14.30;;;9.40;;
54875;SDS011;40764;48.472;8.166;2023-05-02T05:12:51;25.00;;;13.75;;
54875;SDS011;40764;48.472;8.166;2023-05-02T05:18:52;15.73;;;9.33;;
54875;SDS011;40764;48.472;8.166;2023-05-02T05:24:53;14.67;;;8.53;;
54875;SDS011;40764;48.472;8.166;2023-05-02T05:30:53;19.93;;;10.83;;
54875;SDS011;40764;48.472;8.166;2023-05-02T05:36:53;21.02;;;9.43;;
54875;SDS011;40764;48.472;8.166;2023-05-02T05:42:54;18.30;;;9.13;;
54875;SDS011;40764;48.472;8.166;2023-05-02T05:48:54;15.32;;;7.85;;
54875;SDS011;40764;48.472;8.166;2023-05-02T05:54:55;14.57;;;7.83;;
54875;SDS011;40764;48.472;8.166;2023-05-02T06:00:55;18.03;;;9.67;;
54875;SDS011;40764;48.472;8.166;2023-05-02T06:06:56;19.17;;;10.07;;
54875;SDS011;40764;48.472;8.166;2023-05-02T06:12:56;17.58;;;8.93;;
54875;SDS011;40764;48.472;8.166;2023-05-02T06:18:56;14.60;;;7.53;;
54875;SDS011;40764;48.472;8.166;2023-05-02T06:24:57;18.80;;;8.90;;
54875;SDS011;40764;48.472;8.166;2023-05-02T06:36:58;13.37;;;8.07;;
54875;SDS011;40764;48.472;8.166;2023-05-02T06:42:59;15.57;;;8.57;;
54875;SDS011;40764;48.472;8.166;2023-05-02T06:48:59;14.87;;;8.90;;
54875;SDS011;40764;48.472;8.166;2023-05-02T06:55:00;18.15;;;8.77;;
54875;SDS011;40764;48.472;8.166;2023-05-02T07:01:00;20.05;;;8.10;;
54875;SDS011;40764;48.472;8.166;2023-05-02T07:07:00;15.23;;;9.18;;
54875;SDS011;40764;48.472;8.166;2023-05-02T07:13:01;19.67;;;9.03;;
54875;SDS011;40764;48.472;8.166;2023-05-02T07:19:01;22.43;;;10.47;;
54875;SDS011;40764;48.472;8.166;2023-05-02T07:25:03;24.45;;;11.68;;
54875;SDS011;40764;48.472;8.166;2023-05-02T07:31:04;26.53;;;15.37;;
54875;SDS011;40764;48.472;8.166;2023-05-02T07:37:04;25.03;;;13.07;;
54875;SDS011;40764;48.472;8.166;2023-05-02T07:43:04;25.90;;;13.07;;
54875;SDS011;40764;48.472;8.166;2023-05-02T07:49:05;28.87;;;14.73;;
54875;SDS011;40764;48.472;8.166;2023-05-02T07:55:06;37.83;;;15.63;;
54875;SDS011;40764;48.472;8.166;2023-05-02T08:01:07;27.52;;;16.60;;
54875;SDS011;40764;48.472;8.166;2023-05-02T08:07:07;23.58;;;13.70;;
54875;SDS011;40764;48.472;8.166;2023-05-02T08:13:08;21.52;;;11.43;;
54875;SDS011;40764;48.472;8.166;2023-05-02T08:19:08;24.63;;;11.60;;
54875;SDS011;40764;48.472;8.166;2023-05-02T08:25:08;18.13;;;11.00;;
54875;SDS011;40764;48.472;8.166;2023-05-02T08:31:09;16.25;;;9.88;;
54875;SDS011;40764;48.472;8.166;2023-05-02T08:37:09;13.80;;;9.10;;
54875;SDS011;40764;48.472;8.166;2023-05-02T08:43:11;16.80;;;9.73;;
54875;SDS011;40764;48.472;8.166;2023-05-02T08:49:12;15.27;;;9.43;;
54875;SDS011;40764;48.472;8.166;2023-05-02T08:55:14;15.60;;;10.73;;
54875;SDS011;40764;48.472;8.166;2023-05-02T09:01:16;16.90;;;10.33;;
54875;SDS011;40764;48.472;8.166;2023-05-02T09:07:18;24.15;;;11.60;;
54875;SDS011;40764;48.472;8.166;2023-05-02T09:13:31;18.65;;;11.52;;
54875;SDS011;40764;48.472;8.166;2023-05-02T09:19:32;22.05;;;11.75;;
54875;SDS011;40764;48.472;8.166;2023-05-02T09:25:35;19.87;;;11.13;;
54875;SDS011;40764;48.472;8.166;2023-05-02T09:31:36;20.65;;;12.02;;
54875;SDS011;40764;48.472;8.166;2023-05-02T09:37:37;19.80;;;11.77;;
54875;SDS011;40764;48.472;8.166;2023-05-02T09:43:37;23.67;;;13.00;;
54875;SDS011;40764;48.472;8.166;2023-05-02T09:49:42;22.75;;;12.18;;
54875;SDS011;40764;48.472;8.166;2023-05-02T09:55:44;24.88;;;14.18;;
54875;SDS011;40764;48.472;8.166;2023-05-02T10:01:44;23.47;;;14.27;;
54875;SDS011;40764;48.472;8.166;2023-05-02T10:07:45;22.97;;;13.80;;
54875;SDS011;40764;48.472;8.166;2023-05-02T10:13:46;24.00;;;12.90;;
54875;SDS011;40764;48.472;8.166;2023-05-02T10:19:53;22.23;;;13.90;;
54875;SDS011;40764;48.472;8.166;2023-05-02T10:25:59;25.55;;;13.68;;
54875;SDS011;40764;48.472;8.166;2023-05-02T10:32:00;25.70;;;14.63;;
54875;SDS011;40764;48.472;8.166;2023-05-02T10:38:03;16.23;;;11.30;;
54875;SDS011;40764;48.472;8.166;2023-05-02T10:44:05;16.83;;;10.93;;
54875;SDS011;40764;48.472;8.166;2023-05-02T10:50:07;25.17;;;15.20;;
54875;SDS011;40764;48.472;8.166;2023-05-02T10:56:12;29.17;;;16.13;;
54875;SDS011;40764;48.472;8.166;2023-05-02T11:20:29;33.58;;;15.77;;
54875;SDS011;40764;48.472;8.166;2023-05-02T11:26:30;28.40;;;15.97;;
54875;SDS011;40764;48.472;8.166;2023-05-02T11:39:04;33.10;;;17.70;;
54875;SDS011;40764;48.472;8.166;2023-05-02T11:45:18;29.83;;;17.50;;
54875;SDS011;40764;48.472;8.166;2023-05-02T11:51:22;26.58;;;14.13;;
54875;SDS011;40764;48.472;8.166;2023-05-02T11:57:23;27.63;;;14.68;;
54875;SDS011;40764;48.472;8.166;2023-05-02T12:03:28;22.83;;;12.60;;
54875;SDS011;40764;48.472;8.166;2023-05-02T12:09:29;22.90;;;12.38;;
54875;SDS011;40764;48.472;8.166;2023-05-02T12:15:30;22.13;;;11.80;;
54875;SDS011;40764;48.472;8.166;2023-05-02T12:21:30;21.00;;;12.17;;
54875;SDS011;40764;48.472;8.166;2023-05-02T12:27:32;18.20;;;11.32;;
54875;SDS011;40764;48.472;8.166;2023-05-02T12:33:40;21.88;;;11.15;;
54875;SDS011;40764;48.472;8.166;2023-05-02T12:39:50;16.17;;;9.70;;
54875;SDS011;40764;48.472;8.166;2023-05-02T12:52:08;21.45;;;11.60;;
54875;SDS011;40764;48.472;8.166;2023-05-02T12:58:09;12.05;;;8.48;;
54875;SDS011;40764;48.472;8.166;2023-05-02T13:04:12;15.30;;;9.43;;
54875;SDS011;40764;48.472;8.166;2023-05-02T13:10:12;15.63;;;8.23;;
54875;SDS011;40764;48.472;8.166;2023-05-02T13:16:16;23.58;;;11.20;;
54875;SDS011;40764;48.472;8.166;2023-05-02T13:22:17;20.63;;;10.87;;
54875;SDS011;40764;48.472;8.166;2023-05-02T13:28:17;25.27;;;12.70;;
54875;SDS011;40764;48.472;8.166;2023-05-02T13:34:18;26.30;;;14.30;;
54875;SDS011;40764;48.472;8.166;2023-05-02T13:40:18;27.07;;;16.20;;
54875;SDS011;40764;48.472;8.166;2023-05-02T13:46:18;27.20;;;15.63;;
54875;SDS011;40764;48.472;8.166;2023-05-02T13:52:19;32.03;;;16.60;;
54875;SDS011;40764;48.472;8.166;2023-05-02T13:58:19;29.93;;;16.13;;
54875;SDS011;40764;48.472;8.166;2023-05-02T14:04:20;28.63;;;16.23;;
54875;SDS011;40764;48.472;8.166;2023-05-02T14:10:20;26.30;;;15.68;;
54875;SDS011;40764;48.472;8.166;2023-05-02T14:16:20;23.17;;;14.00;;
54875;SDS011;40764;48.472;8.166;2023-05-02T14:22:21;27.17;;;13.82;;
54875;SDS011;40764;48.472;8.166;2023-05-02T14:28:21;21.00;;;13.75;;
54875;SDS011;40764;48.472;8.166;2023-05-02T14:34:22;20.23;;;12.17;;
54875;SDS011;40764;48.472;8.166;2023-05-02T14:40:25;22.98;;;13.27;;
54875;SDS011;40764;48.472;8.166;2023-05-02T14:46:26;21.17;;;13.13;;
54875;SDS011;40764;48.472;8.166;2023-05-02T14:52:26;18.77;;;11.23;;
54875;SDS011;40764;48.472;8.166;2023-05-02T14:58:27;17.38;;;11.13;;
54875;SDS011;40764;48.472;8.166;2023-05-02T15:04:27;18.83;;;11.57;;
54875;SDS011;40764;48.472;8.166;2023-05-02T15:10:29;18.02;;;10.43;;
54875;SDS011;40764;48.472;8.166;2023-05-02T15:16:29;15.00;;;9.10;;
54875;SDS011;40764;48.472;8.166;2023-05-02T15:22:30;15.77;;;8.83;;
54875;SDS011;40764;48.472;8.166;2023-05-02T15:28:30;14.23;;;7.43;;
54875;SDS011;40764;48.472;8.166;2023-05-02T15:34:31;10.10;;;6.78;;
54875;SDS011;40764;48.472;8.166;2023-05-02T15:40:31;8.43;;;5.77;;
54875;SDS011;40764;48.472;8.166;2023-05-02T15:46:32;7.93;;;5.33;;
54875;SDS011;40764;48.472;8.166;2023-05-02T15:52:32;8.18;;;4.68;;
54875;SDS011;40764;48.472;8.166;2023-05-02T15:58:32;7.10;;;4.10;;
54875;SDS011;40764;48.472;8.166;2023-05-02T16:04:33;6.43;;;4.07;;
54875;SDS011;40764;48.472;8.166;2023-05-02T16:10:33;7.40;;;4.17;;
54875;SDS011;40764;48.472;8.166;2023-05-02T16:16:35;5.55;;;3.65;;
54875;SDS011;40764;48.472;8.166;2023-05-02T16:22:35;4.70;;;3.40;;
54875;SDS011;40764;48.472;8.166;2023-05-02T16:28:36;8.33;;;4.80;;
54875;SDS011;40764;48.472;8.166;2023-05-02T16:34:36;4.45;;;2.92;;
54875;SDS011;40764;48.472;8.166;2023-05-02T16:40:36;4.63;;;2.80;;
54875;SDS011;40764;48.472;8.166;2023-05-02T16:46:37;5.72;;;3.58;;
54875;SDS011;40764;48.472;8.166;2023-05-02T16:52:37;5.25;;;3.05;;
54875;SDS011;40764;48.472;8.166;2023-05-02T16:58:37;4.73;;;3.07;;
54875;SDS011;40764;48.472;8.166;2023-05-02T17:04:38;7.53;;;3.10;;
54875;SDS011;40764;48.472;8.166;2023-05-02T17:10:39;5.00;;;3.00;;
54875;SDS011;40764;48.472;8.166;2023-05-02T17:16:39;6.87;;;2.70;;
54875;SDS011;40764;48.472;8.166;2023-05-02T17:22:39;8.13;;;4.30;;
54875;SDS011;40764;48.472;8.166;2023-05-02T17:28:40;6.97;;;4.23;;
54875;SDS011;40764;48.472;8.166;2023-05-02T17:34:42;9.23;;;4.80;;
54875;SDS011;40764;48.472;8.166;2023-05-02T17:40:44;5.32;;;3.65;;
54875;SDS011;40764;48.472;8.166;2023-05-02T17:46:44;6.10;;;3.87;;
54875;SDS011;40764;48.472;8.166;2023-05-02T17:52:45;6.13;;;3.40;;
54875;SDS011;40764;48.472;8.166;2023-05-02T17:58:45;8.57;;;3.40;;
54875;SDS011;40764;48.472;8.166;2023-05-02T18:04:46;5.80;;;3.63;;
54875;SDS011;40764;48.472;8.166;2023-05-02T18:10:47;5.03;;;3.10;;
54875;SDS011;40764;48.472;8.166;2023-05-02T18:16:47;5.20;;;3.00;;
54875;SDS011;40764;48.472;8.166;2023-05-02T18:22:48;9.53;;;3.73;;
54875;SDS011;40764;48.472;8.166;2023-05-02T18:28:48;8.60;;;3.75;;
54875;SDS011;40764;48.472;8.166;2023-05-02T18:34:52;7.75;;;4.10;;
54875;SDS011;40764;48.472;8.166;2023-05-02T18:40:52;7.85;;;4.82;;
54875;SDS011;40764;48.472;8.166;2023-05-02T18:46:52;10.77;;;4.95;;
54875;SDS011;40764;48.472;8.166;2023-05-02T18:52:53;7.13;;;4.23;;
54875;SDS011;40764;48.472;8.166;2023-05-02T18:58:53;6.90;;;3.72;;
54875;SDS011;40764;48.472;8.166;2023-05-02T19:04:55;7.38;;;3.58;;
54875;SDS011;40764;48.472;8.166;2023-05-02T19:10:56;5.57;;;3.70;;
54875;SDS011;40764;48.472;8.166;2023-05-02T19:16:56;8.10;;;4.30;;
54875;SDS011;40764;48.472;8.166;2023-05-02T19:22:56;7.23;;;3.57;;
54875;SDS011;40764;48.472;8.166;2023-05-02T19:28:57;8.20;;;4.30;;
54875;SDS011;40764;48.472;8.166;2023-05-02T19:34:57;8.45;;;4.55;;
54875;SDS011;40764;48.472;8.166;2023-05-02T19:40:58;9.00;;;4.03;;
54875;SDS011;40764;48.472;8.166;2023-05-02T19:46:58;8.43;;;4.60;;
54875;SDS011;40764;48.472;8.166;2023-05-02T19:52:58;6.63;;;3.75;;
54875;SDS011;40764;48.472;8.166;2023-05-02T19:59:00;14.90;;;4.68;;
54875;SDS011;40764;48.472;8.166;2023-05-02T20:05:00;6.00;;;3.55;;
54875;SDS011;40764;48.472;8.166;2023-05-02T20:11:01;5.85;;;3.30;;
54875;SDS011;40764;48.472;8.166;2023-05-02T20:17:01;7.25;;;3.88;;
54875;SDS011;40764;48.472;8.166;2023-05-02T20:23:03;7.88;;;3.72;;
54875;SDS011;40764;48.472;8.166;2023-05-02T20:29:03;6.20;;;3.53;;
54875;SDS011;40764;48.472;8.166;2023-05-02T20:35:06;9.30;;;4.15;;
54875;SDS011;40764;48.472;8.166;2023-05-02T20:41:07;9.33;;;4.40;;
54875;SDS011;40764;48.472;8.166;2023-05-02T20:47:10;11.57;;;5.43;;
54875;SDS011;40764;48.472;8.166;2023-05-02T20:53:11;8.73;;;3.77;;
54875;SDS011;40764;48.472;8.166;2023-05-02T20:59:11;6.40;;;3.80;;
54875;SDS011;40764;48.472;8.166;2023-05-02T21:05:12;10.30;;;4.73;;
54875;SDS011;40764;48.472;8.166;2023-05-02T21:11:13;12.70;;;4.67;;
54875;SDS011;40764;48.472;8.166;2023-05-02T21:17:14;13.27;;;4.45;;
54875;SDS011;40764;48.472;8.166;2023-05-02T21:23:15;12.33;;;6.27;;
54875;SDS011;40764;48.472;8.166;2023-05-02T21:29:15;13.47;;;4.63;;
54875;SDS011;40764;48.472;8.166;2023-05-02T21:35:15;8.17;;;4.00;;
54875;SDS011;40764;48.472;8.166;2023-05-02T21:41:16;9.67;;;4.43;;
54875;SDS011;40764;48.472;8.166;2023-05-02T21:47:16;12.30;;;4.05;;
54875;SDS011;40764;48.472;8.166;2023-05-02T21:53:17;6.33;;;3.73;;
54875;SDS011;40764;48.472;8.166;2023-05-02T21:59:17;7.10;;;3.60;;
54875;SDS011;40764;48.472;8.166;2023-05-02T22:05:18;10.40;;;4.47;;
54875;SDS011;40764;48.472;8.166;2023-05-02T22:11:18;12.27;;;3.77;;
54875;SDS011;40764;48.472;8.166;2023-05-02T22:17:20;12.23;;;5.57;;
54875;SDS011;40764;48.472;8.166;2023-05-02T22:23:21;10.83;;;4.50;;
54875;SDS011;40764;48.472;8.166;2023-05-02T22:29:22;11.57;;;5.00;;
54875;SDS011;40764;48.472;8.166;2023-05-02T22:35:22;8.33;;;4.07;;
54875;SDS011;40764;48.472;8.166;2023-05-02T22:41:22;15.30;;;4.60;;
54875;SDS011;40764;48.472;8.166;2023-05-02T22:47:23;8.17;;;4.20;;
54875;SDS011;40764;48.472;8.166;2023-05-02T22:53:24;9.33;;;4.40;;
54875;SDS011;40764;48.472;8.166;2023-05-02T22:59:25;11.67;;;5.20;;
54875;SDS011;40764;48.472;8.166;2023-05-02T23:05:26;9.27;;;4.00;;
54875;SDS011;40764;48.472;8.166;2023-05-02T23:11:26;10.63;;;4.47;;
54875;SDS011;40764;48.472;8.166;2023-05-02T23:17:27;8.30;;;4.37;;
54875;SDS011;40764;48.472;8.166;2023-05-02T23:23:27;12.40;;;4.72;;
54875;SDS011;40764;48.472;8.166;2023-05-02T23:29:27;8.43;;;4.18;;
54875;SDS011;40764;48.472;8.166;2023-05-02T23:35:29;8.63;;;4.40;;
54875;SDS011;40764;48.472;8.166;2023-05-02T23:47:30;10.80;;;4.10;;
54875;SDS011;40764;48.472;8.166;2023-05-02T23:53:30;14.35;;;5.30;;
54875;SDS011;40764;48.472;8.166;2023-05-02T23:59:31;11.60;;;4.70;;
